createdAt,value
2023-03-26T00:02:24.611Z,82.98
2023-03-26T00:04:56.300Z,82.52
2023-03-26T00:07:29.212Z,82.74
2023-03-26T00:10:01.058Z,82.80
2023-03-26T00:12:33.025Z,82.64
2023-03-26T00:15:05.367Z,82.19
2023-03-26T00:17:36.985Z,81.48
2023-03-26T00:20:11.802Z,81.59
2023-03-26T00:22:45.422Z,82.14
2023-03-26T00:25:17.595Z,81.95
2023-03-26T00:27:49.681Z,81.82
2023-03-26T00:30:22.191Z,81.81
2023-03-26T00:32:54.168Z,81.69
2023-03-26T00:35:26.002Z,81.40
2023-03-26T00:37:59.806Z,81.51
2023-03-26T00:40:32.096Z,81.79
2023-03-26T00:43:10.065Z,81.35
2023-03-26T00:45:41.723Z,81.56
2023-03-26T00:48:13.854Z,80.92
2023-03-26T00:50:47.524Z,81.05
2023-03-26T00:53:21.997Z,81.12
2023-03-26T00:55:54.113Z,80.82
2023-03-26T00:58:26.211Z,81.09
2023-03-26T01:01:03.045Z,81.48
2023-03-26T01:03:39.250Z,81.93
2023-03-26T01:06:16.279Z,81.64
2023-03-26T01:08:52.835Z,81.54
2023-03-26T01:11:30.567Z,81.46
2023-03-26T01:14:07.201Z,81.41
2023-03-26T01:16:44.838Z,80.99
2023-03-26T01:19:26.515Z,80.98
2023-03-26T01:21:58.814Z,80.48
2023-03-26T01:24:32.534Z,80.70
2023-03-26T01:27:17.606Z,80.61
2023-03-26T01:29:57.276Z,80.90
2023-03-26T01:32:44.059Z,80.92
2023-03-26T01:35:25.975Z,81.11
2023-03-26T01:38:11.540Z,80.86
2023-03-26T01:40:50.479Z,81.32
2023-03-26T01:43:31.654Z,81.10
2023-03-26T01:46:08.943Z,80.84
2023-03-26T01:48:44.469Z,81.00
2023-03-26T01:51:27.820Z,81.05
2023-03-26T01:54:02.289Z,80.29
2023-03-26T01:56:45.905Z,79.86
2023-03-26T01:59:47.000Z,79.39
2023-03-26T02:02:28.783Z,79.96
2023-03-26T02:05:13.864Z,79.61
2023-03-26T02:07:51.337Z,79.80
2023-03-26T02:10:28.781Z,80.21
2023-03-26T02:13:02.888Z,79.70
2023-03-26T02:15:35.525Z,80.05
2023-03-26T02:18:10.731Z,79.43
2023-03-26T02:20:42.700Z,79.48
2023-03-26T02:23:12.697Z,79.72
2023-03-26T02:25:45.906Z,79.76
2023-03-26T02:28:19.051Z,79.30
2023-03-26T02:30:50.989Z,79.01
2023-03-26T02:33:22.815Z,79.02
2023-03-26T02:35:55.031Z,79.11
2023-03-26T02:38:27.580Z,79.38
2023-03-26T02:40:59.259Z,79.04
2023-03-26T02:43:32.586Z,79.12
2023-03-26T02:46:05.203Z,79.12
2023-03-26T02:48:36.842Z,79.36
2023-03-26T02:51:09.273Z,79.55
2023-03-26T02:53:41.202Z,79.00
2023-03-26T02:56:15.028Z,79.12
2023-03-26T02:58:48.352Z,79.30
2023-03-26T03:01:20.153Z,79.57
2023-03-26T03:03:52.086Z,79.19
2023-03-26T03:06:26.374Z,79.22
2023-03-26T03:08:58.230Z,79.25
2023-03-26T03:11:30.452Z,79.18
2023-03-26T03:14:04.322Z,79.15
2023-03-26T03:16:36.745Z,79.44
2023-03-26T03:19:08.657Z,79.63
2023-03-26T03:21:38.550Z,79.48
2023-03-26T03:24:13.736Z,79.60
2023-03-26T03:26:45.677Z,79.79
2023-03-26T03:29:18.582Z,80.11
2023-03-26T03:31:50.487Z,80.18
2023-03-26T03:34:23.343Z,80.58
2023-03-26T03:36:54.923Z,80.44
2023-03-26T03:39:27.818Z,80.67
2023-03-26T03:41:59.653Z,80.81
2023-03-26T03:44:32.846Z,80.40
2023-03-26T03:47:04.771Z,80.42
2023-03-26T03:49:36.567Z,80.48
2023-03-26T03:52:08.388Z,80.21
2023-03-26T03:54:40.329Z,80.08
2023-03-26T03:57:12.179Z,79.21
2023-03-26T03:59:47.488Z,78.84
2023-03-26T04:02:26.637Z,78.55
2023-03-26T04:04:58.530Z,77.34
2023-03-26T04:07:32.182Z,77.10
2023-03-26T04:10:05.467Z,77.03
2023-03-26T04:12:37.286Z,76.26
2023-03-26T04:15:10.663Z,76.06
2023-03-26T04:17:44.941Z,76.15
2023-03-26T04:20:19.287Z,76.35
2023-03-26T04:22:50.889Z,76.52
2023-03-26T04:25:30.214Z,76.79
2023-03-26T04:28:06.373Z,76.91
2023-03-26T04:30:42.273Z,77.34
2023-03-26T04:33:16.269Z,77.63
2023-03-26T04:35:48.264Z,78.30
2023-03-26T04:38:21.017Z,78.86
2023-03-26T04:40:53.126Z,79.08
2023-03-26T04:43:25.098Z,79.96
2023-03-26T04:46:02.241Z,80.83
2023-03-26T04:48:34.199Z,81.21
2023-03-26T04:51:07.389Z,81.35
2023-03-26T04:53:39.288Z,81.81
2023-03-26T04:56:27.091Z,81.98
2023-03-26T04:59:03.407Z,82.07
2023-03-26T05:01:37.880Z,82.28
2023-03-26T05:04:10.068Z,82.41
2023-03-26T05:06:42.862Z,82.52
2023-03-26T05:09:14.498Z,82.26
2023-03-26T05:11:46.498Z,82.17
2023-03-26T05:14:18.686Z,82.19
2023-03-26T05:16:54.136Z,81.92
2023-03-26T05:19:26.063Z,81.77
2023-03-26T05:21:57.872Z,81.19
2023-03-26T05:24:29.855Z,81.03
2023-03-26T05:27:01.672Z,80.66
2023-03-26T05:29:33.505Z,80.85
2023-03-26T05:32:07.762Z,80.68
2023-03-26T05:34:40.010Z,80.42
2023-03-26T05:37:11.842Z,80.15
2023-03-26T05:39:45.795Z,80.22
2023-03-26T05:42:17.454Z,80.33
2023-03-26T05:44:49.456Z,80.16
2023-03-26T05:47:23.578Z,80.53
2023-03-26T05:49:55.484Z,80.65
2023-03-26T05:52:27.612Z,80.77
2023-03-26T05:54:59.360Z,80.88
2023-03-26T05:57:33.097Z,80.98
2023-03-26T06:00:06.292Z,81.06
2023-03-26T06:02:39.514Z,80.76
2023-03-26T06:05:12.456Z,81.15
2023-03-26T06:07:44.431Z,80.83
2023-03-26T06:10:18.932Z,80.58
2023-03-26T06:12:50.993Z,80.94
2023-03-26T06:15:22.702Z,80.67
2023-03-26T06:17:56.012Z,81.04
2023-03-26T06:20:28.202Z,80.76
2023-03-26T06:22:59.818Z,80.81
2023-03-26T06:25:31.690Z,80.76
2023-03-26T06:28:03.744Z,80.87
2023-03-26T06:30:35.557Z,81.03
2023-03-26T06:33:09.269Z,81.01
2023-03-26T06:35:42.771Z,80.86
2023-03-26T06:38:14.414Z,80.93
2023-03-26T06:40:46.330Z,81.32
2023-03-26T06:43:18.445Z,81.18
2023-03-26T06:45:53.665Z,80.66
2023-03-26T06:48:26.637Z,80.31
2023-03-26T06:50:58.626Z,80.14
2023-03-26T06:53:30.408Z,80.38
2023-03-26T06:56:03.205Z,80.21
2023-03-26T06:58:35.115Z,80.65
2023-03-26T07:01:06.900Z,80.79
2023-03-26T07:03:39.933Z,80.28
2023-03-26T07:06:13.346Z,80.54
2023-03-26T07:08:44.977Z,80.62
2023-03-26T07:11:19.460Z,80.73
2023-03-26T07:13:51.424Z,80.18
2023-03-26T07:16:23.644Z,80.49
2023-03-26T07:18:56.977Z,80.19
2023-03-26T07:21:29.775Z,80.48
2023-03-26T07:24:02.967Z,80.82
2023-03-26T07:26:50.814Z,79.43
2023-03-26T07:29:34.831Z,79.46
2023-03-26T07:32:21.143Z,79.50
2023-03-26T07:35:02.863Z,79.05
2023-03-26T07:37:50.259Z,78.71
2023-03-26T07:40:46.518Z,78.79
2023-03-26T07:43:34.603Z,78.23
2023-03-26T07:46:05.881Z,78.17
2023-03-26T07:48:48.292Z,78.02
2023-03-26T07:51:21.998Z,77.08
2023-03-26T07:53:56.205Z,76.45
2023-03-26T07:56:35.927Z,76.59
2023-03-26T07:59:19.022Z,73.13
2023-03-26T08:02:05.316Z,73.52
2023-03-26T08:04:57.395Z,74.36
2023-03-26T08:07:46.204Z,75.44
2023-03-26T08:10:28.240Z,74.15
2023-03-26T08:13:11.523Z,74.63
2023-03-26T08:15:54.266Z,74.34
2023-03-26T08:18:41.813Z,73.47
2023-03-26T08:21:21.136Z,74.59
2023-03-26T08:24:03.399Z,74.65
2023-03-26T08:26:52.947Z,74.39
2023-03-26T08:29:42.236Z,73.98
2023-03-26T08:32:21.657Z,73.34
2023-03-26T08:34:53.649Z,73.19
2023-03-26T08:37:29.170Z,72.86
2023-03-26T08:40:02.202Z,73.64
2023-03-26T08:43:25.475Z,72.58
2023-03-26T08:46:26.093Z,73.10
2023-03-26T08:49:51.753Z,72.77
2023-03-26T08:52:55.144Z,73.30
2023-03-26T08:55:44.488Z,71.61
2023-03-26T08:59:03.372Z,73.31
2023-03-26T09:02:12.004Z,73.97
2023-03-26T09:05:30.417Z,73.83
2023-03-26T09:08:57.950Z,73.72
2023-03-26T09:12:13.092Z,74.58
2023-03-26T09:15:39.998Z,74.72
2023-03-26T09:19:00.839Z,74.62
2023-03-26T09:21:59.357Z,73.35
2023-03-26T09:25:18.445Z,74.57
2023-03-26T09:28:24.036Z,74.64
2023-03-26T09:31:35.780Z,75.99
2023-03-26T09:34:31.679Z,76.11
2023-03-26T09:37:25.598Z,77.85
2023-03-26T09:40:17.372Z,77.97
2023-03-26T09:42:55.899Z,78.51
2023-03-26T09:46:00.867Z,77.71
2023-03-26T09:49:22.832Z,77.69
2023-03-26T09:52:13.873Z,77.05
2023-03-26T09:55:24.178Z,78.54
2023-03-26T09:58:33.551Z,76.48
2023-03-26T10:01:16.580Z,76.94
2023-03-26T10:04:26.867Z,76.09
2023-03-26T10:07:06.354Z,77.02
2023-03-26T10:09:51.092Z,76.13
2023-03-26T10:12:38.143Z,76.07
2023-03-26T10:15:27.704Z,76.08
2023-03-26T10:18:27.145Z,76.16
2023-03-26T10:21:13.483Z,74.84
2023-03-26T10:24:32.134Z,75.22
2023-03-26T10:27:19.086Z,74.22
2023-03-26T10:30:33.806Z,72.88
2023-03-26T10:33:16.023Z,73.09
2023-03-26T10:36:13.280Z,72.35
2023-03-26T10:39:03.774Z,70.80
2023-03-26T10:41:50.757Z,71.86
2023-03-26T10:44:46.317Z,73.47
2023-03-26T10:47:56.881Z,73.46
2023-03-26T10:50:50.803Z,72.41
2023-03-26T10:53:35.807Z,71.93
2023-03-26T10:56:22.810Z,72.10
2023-03-26T10:58:56.763Z,71.55
2023-03-26T11:01:42.592Z,71.40
2023-03-26T11:04:30.265Z,73.69
2023-03-26T11:07:13.115Z,71.36
2023-03-26T11:09:54.718Z,71.13
2023-03-26T11:12:36.702Z,70.31
2023-03-26T11:15:23.776Z,70.50
2023-03-26T11:18:07.797Z,69.76
2023-03-26T11:20:49.324Z,69.93
2023-03-26T11:23:42.561Z,66.86
2023-03-26T11:26:18.266Z,67.30
2023-03-26T11:29:32.590Z,68.27
2023-03-26T11:32:14.408Z,65.93
2023-03-26T11:34:54.744Z,69.59
2023-03-26T11:37:39.712Z,66.89
2023-03-26T11:40:21.291Z,67.57
2023-03-26T11:42:57.905Z,68.75
2023-03-26T11:45:37.449Z,67.47
2023-03-26T11:48:17.185Z,66.59
2023-03-26T11:50:58.286Z,66.25
2023-03-26T11:53:39.805Z,66.09
2023-03-26T11:56:19.190Z,67.46
2023-03-26T11:59:01.162Z,68.32
2023-03-26T12:01:50.265Z,66.68
2023-03-26T12:04:31.415Z,67.45
2023-03-26T12:07:17.188Z,68.94
2023-03-26T12:09:57.506Z,67.54
2023-03-26T12:12:53.013Z,67.08
2023-03-26T12:15:28.358Z,67.89
2023-03-26T12:18:20.702Z,66.58
2023-03-26T12:21:03.005Z,64.64
2023-03-26T12:23:56.928Z,64.37
2023-03-26T12:26:46.293Z,66.07
2023-03-26T12:29:21.489Z,64.37
2023-03-26T12:32:08.353Z,66.21
2023-03-26T12:34:41.465Z,65.51
2023-03-26T12:37:35.991Z,65.73
2023-03-26T12:40:30.342Z,63.94
2023-03-26T12:44:53.796Z,65.40
2023-03-26T12:47:55.325Z,67.85
2023-03-26T12:48:52.607Z,65.46
2023-03-26T12:51:34.171Z,65.73
2023-03-26T12:54:33.765Z,66.77
2023-03-26T12:57:21.112Z,64.97
2023-03-26T13:00:21.347Z,64.71
2023-03-26T13:03:18.103Z,64.15
2023-03-26T13:06:10.656Z,64.20
2023-03-26T13:09:15.490Z,63.69
2023-03-26T13:12:00.204Z,63.71
2023-03-26T13:14:59.453Z,63.61
2023-03-26T13:17:41.581Z,62.93
2023-03-26T13:20:24.965Z,63.47
2023-03-26T13:23:08.137Z,64.72
2023-03-26T13:25:56.792Z,65.99
2023-03-26T13:28:40.406Z,65.99
2023-03-26T13:31:23.155Z,66.80
2023-03-26T13:34:05.057Z,66.10
2023-03-26T13:36:49.614Z,65.00
2023-03-26T13:39:35.988Z,64.84
2023-03-26T13:42:33.570Z,66.14
2023-03-26T13:45:25.156Z,65.42
2023-03-26T13:48:04.817Z,65.40
2023-03-26T13:50:44.750Z,64.29
2023-03-26T13:53:24.576Z,65.11
2023-03-26T13:56:00.840Z,65.28
2023-03-26T13:58:42.067Z,66.42
2023-03-26T14:01:20.201Z,65.88
2023-03-26T14:04:01.368Z,64.51
2023-03-26T14:06:41.996Z,64.73
2023-03-26T14:09:22.789Z,64.42
2023-03-26T14:12:21.516Z,66.36
2023-03-26T14:15:01.239Z,65.20
2023-03-26T14:17:46.385Z,65.11
2023-03-26T14:21:00.260Z,65.32
2023-03-26T14:24:19.821Z,65.91
2023-03-26T14:27:15.495Z,65.08
2023-03-26T14:30:18.401Z,65.21
2023-03-26T14:33:07.161Z,65.74
2023-03-26T14:35:51.742Z,66.54
2023-03-26T14:39:09.431Z,65.61
2023-03-26T14:41:57.238Z,65.23
2023-03-26T14:45:21.257Z,65.10
2023-03-26T14:48:13.890Z,66.32
2023-03-26T14:51:09.981Z,65.88
2023-03-26T14:53:49.401Z,66.20
2023-03-26T14:56:52.874Z,66.48
2023-03-26T15:00:20.028Z,66.35
2023-03-26T15:03:48.853Z,65.89
2023-03-26T15:07:23.248Z,65.13
2023-03-26T15:10:26.369Z,65.31
2023-03-26T15:13:32.455Z,65.87
2023-03-26T15:16:52.670Z,65.46
2023-03-26T15:20:13.009Z,63.97
2023-03-26T15:23:21.961Z,65.08
2023-03-26T15:26:46.446Z,65.14
2023-03-26T15:29:58.646Z,64.05
2023-03-26T15:33:08.790Z,64.27
2023-03-26T15:36:41.044Z,64.28
2023-03-26T15:40:12.671Z,63.77
2023-03-26T15:42:59.726Z,63.34
2023-03-26T15:45:39.545Z,64.51
2023-03-26T15:48:44.888Z,64.99
2023-03-26T15:51:47.542Z,63.78
2023-03-26T15:54:30.134Z,64.13
2023-03-26T15:57:20.522Z,63.46
2023-03-26T16:00:15.110Z,63.26
2023-03-26T16:03:09.975Z,64.27
2023-03-26T16:06:02.165Z,64.81
2023-03-26T16:08:53.053Z,62.66
2023-03-26T16:11:50.003Z,63.19
2023-03-26T16:14:23.912Z,62.37
2023-03-26T16:17:02.259Z,63.67
2023-03-26T16:19:59.137Z,62.54
2023-03-26T16:23:03.401Z,63.47
2023-03-26T16:25:56.610Z,63.20
2023-03-26T16:28:59.313Z,63.49
2023-03-26T16:31:38.830Z,62.64
2023-03-26T16:34:40.308Z,62.90
2023-03-26T16:37:40.746Z,62.68
2023-03-26T16:40:33.248Z,62.14
2023-03-26T16:43:45.490Z,62.17
2023-03-26T16:46:32.411Z,62.45
2023-03-26T16:49:16.358Z,62.76
2023-03-26T16:52:06.756Z,62.06
2023-03-26T16:54:50.530Z,61.88
2023-03-26T16:57:30.422Z,61.47
2023-03-26T17:00:31.368Z,61.29
2023-03-26T17:03:18.710Z,61.09
2023-03-26T17:06:06.060Z,60.96
2023-03-26T17:08:49.378Z,60.80
2023-03-26T17:11:30.287Z,61.76
2023-03-26T17:14:15.357Z,61.68
2023-03-26T17:17:05.711Z,60.68
2023-03-26T17:19:47.683Z,61.71
2023-03-26T17:22:30.923Z,60.86
2023-03-26T17:25:20.425Z,61.76
2023-03-26T17:28:08.304Z,60.42
2023-03-26T17:31:17.553Z,61.56
2023-03-26T17:33:51.331Z,61.69
2023-03-26T17:36:42.639Z,61.28
2023-03-26T17:40:12.125Z,61.13
2023-03-26T17:43:06.281Z,60.87
2023-03-26T17:45:43.697Z,61.47
2023-03-26T17:48:22.930Z,61.38
2023-03-26T17:51:00.197Z,60.87
2023-03-26T17:53:35.583Z,61.54
2023-03-26T17:56:16.268Z,62.15
2023-03-26T17:59:00.282Z,61.75
2023-03-26T18:01:48.093Z,60.46
2023-03-26T18:04:33.261Z,60.08
2023-03-26T18:07:29.604Z,59.87
2023-03-26T18:10:22.300Z,60.23
2023-03-26T18:13:22.174Z,59.58
2023-03-26T18:16:10.012Z,59.70
2023-03-26T18:18:48.680Z,59.21
2023-03-26T18:21:26.978Z,60.44
2023-03-26T18:24:00.700Z,59.38
2023-03-26T18:26:41.209Z,59.39
2023-03-26T18:29:24.891Z,59.95
2023-03-26T18:32:02.880Z,59.58
2023-03-26T18:34:39.510Z,58.77
2023-03-26T18:37:19.513Z,60.22
2023-03-26T18:40:11.357Z,59.66
2023-03-26T18:42:48.331Z,60.99
2023-03-26T18:45:29.900Z,59.44
2023-03-26T18:48:07.303Z,59.63
2023-03-26T18:50:43.993Z,59.17
2023-03-26T18:53:24.340Z,59.70
2023-03-26T18:55:57.366Z,61.15
2023-03-26T18:58:36.680Z,60.40
2023-03-26T19:01:23.816Z,60.84
2023-03-26T19:04:03.632Z,60.73
2023-03-26T19:06:40.883Z,60.81
2023-03-26T19:09:30.443Z,60.78
2023-03-26T19:12:17.219Z,61.07
2023-03-26T19:15:11.137Z,61.59
2023-03-26T19:17:48.316Z,60.91
2023-03-26T19:20:26.219Z,61.22
2023-03-26T19:22:59.981Z,61.06
2023-03-26T19:25:39.799Z,61.04
2023-03-26T19:28:18.190Z,62.78
2023-03-26T19:30:53.881Z,61.86
2023-03-26T19:33:33.964Z,61.83
2023-03-26T19:36:17.932Z,63.63
2023-03-26T19:39:04.816Z,62.05
2023-03-26T19:41:41.034Z,62.08
2023-03-26T19:44:26.841Z,62.65
2023-03-26T19:47:09.413Z,63.22
2023-03-26T19:49:54.027Z,63.14
2023-03-26T19:52:29.585Z,63.05
2023-03-26T19:55:18.934Z,63.13
2023-03-26T19:57:51.701Z,62.25
2023-03-26T20:00:24.808Z,62.85
2023-03-26T20:02:57.716Z,63.06
2023-03-26T20:05:34.552Z,62.94
2023-03-26T20:08:17.233Z,63.03
2023-03-26T20:10:50.017Z,63.37
2023-03-26T20:13:22.470Z,63.48
2023-03-26T20:16:05.805Z,63.16
2023-03-26T20:18:38.710Z,63.30
2023-03-26T20:21:15.576Z,64.02
2023-03-26T20:23:49.493Z,64.66
2023-03-26T20:26:22.168Z,63.91
2023-03-26T20:28:55.150Z,64.01
2023-03-26T20:31:30.278Z,63.47
2023-03-26T20:34:01.990Z,63.40
2023-03-26T20:36:35.626Z,62.64
2023-03-26T20:39:09.703Z,63.17
2023-03-26T20:41:47.731Z,63.38
2023-03-26T20:44:22.699Z,64.14
2023-03-26T20:46:58.875Z,63.91
2023-03-26T20:49:32.235Z,64.14
2023-03-26T20:52:05.077Z,63.79
2023-03-26T20:54:38.232Z,63.35
2023-03-26T20:57:11.759Z,63.80
2023-03-26T20:59:43.486Z,64.37
2023-03-26T21:02:15.738Z,64.29
2023-03-26T21:04:48.572Z,63.50
2023-03-26T21:07:20.426Z,63.66
2023-03-26T21:09:57.833Z,64.34
2023-03-26T21:12:35.907Z,63.77
2023-03-26T21:15:17.080Z,63.81
2023-03-26T21:17:52.984Z,64.47
2023-03-26T21:20:28.814Z,64.92
2023-03-26T21:23:14.208Z,64.99
2023-03-26T21:26:06.232Z,64.77
2023-03-26T21:28:45.393Z,64.57
2023-03-26T21:31:21.330Z,64.86
2023-03-26T21:33:56.856Z,65.22
2023-03-26T21:36:30.812Z,65.29
2023-03-26T21:39:05.914Z,64.65
2023-03-26T21:41:48.247Z,64.80
2023-03-26T21:44:21.721Z,65.48
2023-03-26T21:46:53.854Z,64.72
2023-03-26T21:49:26.127Z,64.98
2023-03-26T21:52:00.238Z,65.19
2023-03-26T21:54:34.911Z,64.79
2023-03-26T21:57:48.227Z,64.71
2023-03-26T22:00:33.572Z,64.40
2023-03-26T22:03:22.390Z,64.52
2023-03-26T22:06:01.110Z,63.78
2023-03-26T22:08:40.666Z,63.64
2023-03-26T22:11:14.550Z,64.53
2023-03-26T22:13:48.517Z,64.62
2023-03-26T22:16:25.069Z,64.42
2023-03-26T22:18:57.364Z,63.88
2023-03-26T22:21:29.710Z,64.44
2023-03-26T22:24:03.851Z,63.82
2023-03-26T22:26:37.308Z,64.71
2023-03-26T22:29:10.558Z,64.56
2023-03-26T22:31:43.824Z,63.92
2023-03-26T22:34:15.501Z,64.49
2023-03-26T22:36:47.464Z,64.14
2023-03-26T22:39:19.269Z,63.86
2023-03-26T22:41:51.269Z,64.59
2023-03-26T22:44:24.378Z,64.46
2023-03-26T22:46:56.926Z,65.05
2023-03-26T22:49:30.205Z,64.99
2023-03-26T22:52:02.003Z,65.06
2023-03-26T22:54:34.400Z,63.80
2023-03-26T22:57:06.379Z,64.35
2023-03-26T22:59:39.715Z,64.05
2023-03-26T23:02:12.339Z,64.59
2023-03-26T23:04:44.305Z,63.79
2023-03-26T23:07:16.432Z,62.99
2023-03-26T23:09:48.328Z,62.56
2023-03-26T23:12:20.193Z,63.74
2023-03-26T23:14:53.552Z,65.17
2023-03-26T23:17:25.796Z,64.18
2023-03-26T23:19:57.433Z,63.32
2023-03-26T23:22:29.550Z,63.55
2023-03-26T23:25:01.124Z,64.23
2023-03-26T23:27:33.067Z,63.84
2023-03-26T23:30:06.154Z,64.39
2023-03-26T23:32:38.309Z,64.34
2023-03-26T23:35:11.120Z,64.01
2023-03-26T23:37:43.191Z,63.95
2023-03-26T23:40:16.484Z,63.90
2023-03-26T23:42:49.471Z,63.60
2023-03-26T23:45:22.835Z,63.66
2023-03-26T23:47:54.489Z,63.44
2023-03-26T23:50:29.039Z,63.77
2023-03-26T23:53:00.858Z,62.96
2023-03-26T23:55:35.352Z,63.20
2023-03-26T23:58:07.468Z,62.49
